createdAt,value
2023-04-02T00:00:22.941Z,101305.13
2023-04-02T00:05:52.837Z,101304.84
2023-04-02T00:10:59.456Z,101320.19
2023-04-02T00:16:28.958Z,101310.59
2023-04-02T00:21:35.374Z,101304.59
2023-04-02T00:26:44.999Z,101318.00
2023-04-02T00:31:51.994Z,101316.91
2023-04-02T00:36:58.058Z,101309.50
2023-04-02T00:42:06.950Z,101297.19
2023-04-02T00:47:21.747Z,101301.56
2023-04-02T00:52:27.991Z,101304.03
2023-04-02T00:57:31.129Z,101299.09
2023-04-02T01:05:17.672Z,101304.56
2023-04-02T01:10:49.579Z,101297.72
2023-04-02T01:16:19.430Z,101305.38
2023-04-02T01:21:42.661Z,101308.91
2023-04-02T01:27:02.908Z,101304.78
2023-04-02T01:32:19.055Z,101306.13
2023-04-02T01:37:40.157Z,101308.31
2023-04-02T01:43:08.480Z,101310.19
2023-04-02T01:48:17.753Z,101306.09
2023-04-02T01:53:22.350Z,101295.94
2023-04-02T01:58:28.223Z,101281.72
2023-04-02T02:03:31.925Z,101288.53
2023-04-02T02:08:40.044Z,101285.75
2023-04-02T02:13:48.232Z,101278.31
2023-04-02T02:18:53.846Z,101274.78
2023-04-02T02:23:57.658Z,101279.69
2023-04-02T02:29:04.478Z,101280.72
2023-04-02T02:34:23.378Z,101283.97
2023-04-02T02:39:34.717Z,101278.47
2023-04-02T02:44:49.783Z,101293.72
2023-04-02T02:50:00.340Z,101288.78
2023-04-02T02:55:39.000Z,101290.38
2023-04-02T03:00:58.864Z,101275.03
2023-04-02T03:06:23.496Z,101274.44
2023-04-02T03:11:49.207Z,101279.88
2023-04-02T03:17:03.599Z,101284.47
2023-04-02T03:22:36.038Z,101289.91
2023-04-02T03:27:48.067Z,101274.31
2023-04-02T03:32:55.190Z,101271.84
2023-04-02T03:38:16.711Z,101271.03
2023-04-02T03:43:31.552Z,101266.09
2023-04-02T03:48:55.732Z,101263.88
2023-04-02T03:54:15.523Z,101263.84
2023-04-02T03:59:29.944Z,101264.38
2023-04-02T04:04:41.776Z,101261.34
2023-04-02T04:09:53.430Z,101277.41
2023-04-02T04:15:06.574Z,101272.72
2023-04-02T04:35:03.184Z,101275.38
2023-04-02T04:40:32.346Z,101278.94
2023-04-02T04:46:12.691Z,101274.53
2023-04-02T04:52:01.016Z,101279.41
2023-04-02T04:57:06.756Z,101293.31
2023-04-02T05:16:14.765Z,101324.94
2023-04-02T05:22:03.552Z,101327.94
2023-04-02T05:28:03.406Z,101321.34
2023-04-02T05:33:29.002Z,101325.41
2023-04-02T05:38:48.922Z,101330.56
2023-04-02T05:44:17.897Z,101340.63
2023-04-02T06:01:18.223Z,101361.69
2023-04-02T06:06:56.533Z,101373.19
2023-04-02T06:12:28.011Z,101360.91
2023-04-02T06:17:56.111Z,101373.22
2023-04-02T06:23:12.598Z,101379.81
2023-04-02T06:28:35.338Z,101360.22
2023-04-02T06:34:03.743Z,101377.19
2023-04-02T06:39:25.140Z,101382.94
2023-04-02T06:44:35.844Z,101380.25
2023-04-02T06:50:48.648Z,101379.53
2023-04-02T06:56:30.210Z,101395.97
2023-04-02T07:01:37.817Z,101405.53
2023-04-02T07:06:42.346Z,101409.75
2023-04-02T07:11:50.542Z,101405.19
2023-04-02T07:17:06.423Z,101396.03
2023-04-02T07:22:25.441Z,101403.38
2023-04-02T07:27:37.825Z,101412.81
2023-04-02T07:32:53.561Z,101402.72
2023-04-02T07:37:58.286Z,101418.53
2023-04-02T07:43:06.518Z,101415.75
2023-04-02T07:48:15.267Z,101420.59
2023-04-02T07:53:50.561Z,101413.91
2023-04-02T07:58:55.834Z,101415.66
2023-04-02T08:04:04.304Z,101411.41
2023-04-02T08:09:08.100Z,101423.91
2023-04-02T08:14:12.196Z,101414.47
2023-04-02T08:19:14.728Z,101415.63
2023-04-02T08:24:25.193Z,101429.00
2023-04-02T08:29:33.440Z,101434.38
2023-04-02T08:34:45.019Z,101439.38
2023-04-02T08:39:51.277Z,101435.41
2023-04-02T08:50:37.055Z,101442.50
2023-04-02T08:56:18.893Z,101437.06
2023-04-02T09:01:47.689Z,101431.25
2023-04-02T09:07:14.631Z,101428.13
2023-04-02T09:12:32.085Z,101422.22
2023-04-02T09:17:50.561Z,101419.59
2023-04-02T09:23:00.467Z,101411.16
2023-04-02T09:28:09.730Z,101413.19
2023-04-02T09:33:20.120Z,101418.63
2023-04-02T09:38:36.623Z,101425.25
2023-04-02T09:43:52.476Z,101422.72
2023-04-02T09:49:02.671Z,101430.13
2023-04-02T09:54:18.011Z,101421.13
2023-04-02T09:59:24.949Z,101425.63
2023-04-02T10:04:45.425Z,101424.34
2023-04-02T10:09:58.796Z,101427.72
2023-04-02T10:15:03.324Z,101411.75
2023-04-02T10:20:28.480Z,101396.16
2023-04-02T10:25:43.695Z,101397.56
2023-04-02T10:31:02.627Z,101398.31
2023-04-02T10:36:33.291Z,101402.16
2023-04-02T10:41:59.807Z,101404.44
2023-04-02T10:47:27.411Z,101390.63
2023-04-02T10:52:34.380Z,101376.78
2023-04-02T10:57:47.736Z,101370.59
2023-04-02T11:03:14.648Z,101370.97
2023-04-02T11:08:19.203Z,101363.66
2023-04-02T11:13:35.682Z,101358.47
2023-04-02T11:18:38.637Z,101355.41
2023-04-02T11:24:04.316Z,101338.63
2023-04-02T11:29:12.347Z,101342.53
2023-04-02T11:34:37.085Z,101340.75
2023-04-02T11:39:55.082Z,101340.09
2023-04-02T11:45:29.017Z,101334.50
2023-04-02T11:50:44.460Z,101337.31
2023-04-02T11:56:24.526Z,101331.56
2023-04-02T12:01:30.241Z,101323.09
2023-04-02T12:07:11.411Z,101313.94
2023-04-02T12:12:41.726Z,101312.97
2023-04-02T12:17:45.050Z,101289.75
2023-04-02T12:22:51.476Z,101292.03
2023-04-02T12:28:17.991Z,101292.97
2023-04-02T12:33:19.877Z,101286.50
2023-04-02T12:38:24.777Z,101304.00
2023-04-02T12:43:32.478Z,101281.00
2023-04-02T12:48:39.379Z,101271.91
2023-04-02T12:53:42.088Z,101261.78
2023-04-02T12:58:44.415Z,101261.94
2023-04-02T13:04:10.720Z,101272.22
2023-04-02T13:09:44.926Z,101261.06
2023-04-02T13:14:52.973Z,101260.56
2023-04-02T13:19:55.131Z,101237.75
2023-04-02T13:24:57.347Z,101254.22
2023-04-02T13:30:12.023Z,101236.47
2023-04-02T13:35:21.302Z,101243.31
2023-04-02T13:40:23.508Z,101236.53
2023-04-02T13:45:40.942Z,101232.25
2023-04-02T13:50:43.111Z,101236.50
2023-04-02T13:55:45.309Z,101220.03
2023-04-02T14:00:48.126Z,101212.50
2023-04-02T14:12:10.211Z,101200.19
2023-04-02T14:17:58.235Z,101190.69
2023-04-02T14:23:28.950Z,101195.16
2023-04-02T14:29:12.476Z,101192.06
2023-04-02T14:34:23.207Z,101180.84
2023-04-02T14:39:49.890Z,101169.16
2023-04-02T14:45:01.954Z,101163.66
2023-04-02T14:50:29.700Z,101158.66
2023-04-02T14:55:44.210Z,101161.16
2023-04-02T15:00:57.480Z,101163.78
2023-04-02T15:06:03.496Z,101158.75
2023-04-02T15:11:34.263Z,101148.03
2023-04-02T15:16:36.646Z,101152.34
2023-04-02T15:21:57.689Z,101144.44
2023-04-02T15:27:18.252Z,101154.63
2023-04-02T15:32:42.769Z,101145.00
2023-04-02T15:38:27.602Z,101138.69
2023-04-02T15:43:32.409Z,101145.53
2023-04-02T15:49:16.435Z,101143.97
2023-04-02T15:54:36.787Z,101138.75
2023-04-02T16:00:07.372Z,101152.22
2023-04-02T16:05:31.916Z,101142.75
2023-04-02T16:10:42.615Z,101158.00
2023-04-02T16:15:58.715Z,101148.06
2023-04-02T16:21:04.109Z,101157.78
2023-04-02T16:26:14.904Z,101146.34
2023-04-02T16:31:27.411Z,101158.78
2023-04-02T16:37:08.221Z,101156.47
2023-04-02T16:42:53.249Z,101160.75
2023-04-02T16:48:07.418Z,101166.34
2023-04-02T16:53:19.427Z,101175.91
2023-04-02T16:58:24.159Z,101179.44
2023-04-02T17:03:38.177Z,101189.78
2023-04-02T17:08:44.401Z,101208.06
2023-04-02T17:14:18.409Z,101205.13
2023-04-02T17:19:31.602Z,101217.91
2023-04-02T17:24:42.058Z,101230.31
2023-04-02T17:35:43.256Z,101223.97
2023-04-02T17:41:23.938Z,101230.31
2023-04-02T17:46:45.074Z,101245.13
2023-04-02T17:52:01.039Z,101261.41
2023-04-02T17:57:19.416Z,101280.47
2023-04-02T18:02:43.932Z,101296.22
2023-04-02T18:07:55.835Z,101309.78
2023-04-02T18:13:02.289Z,101323.84
2023-04-02T18:18:23.923Z,101337.81
2023-04-02T18:23:37.922Z,101351.72
2023-04-02T18:28:46.448Z,101361.22
2023-04-02T18:34:11.022Z,101377.22
2023-04-02T18:39:57.440Z,101388.59
2023-04-02T18:45:14.046Z,101397.25
2023-04-02T18:50:39.881Z,101410.56
2023-04-02T18:56:24.882Z,101404.09
2023-04-02T19:01:47.908Z,101409.44
2023-04-02T19:07:09.047Z,101415.28
2023-04-02T19:12:27.094Z,101447.75
2023-04-02T19:17:46.214Z,101467.31
2023-04-02T19:22:54.225Z,101497.81
2023-04-02T19:28:11.706Z,101514.31
2023-04-02T19:33:37.834Z,101534.91
2023-04-02T19:39:03.322Z,101539.00
2023-04-02T19:44:11.735Z,101546.66
2023-04-02T19:49:17.051Z,101554.91
2023-04-02T19:54:19.368Z,101562.06
2023-04-02T19:59:22.426Z,101572.25
2023-04-02T20:04:25.032Z,101592.88
2023-04-02T20:09:27.033Z,101586.56
2023-04-02T20:14:29.226Z,101591.78
2023-04-02T20:19:32.262Z,101594.53
2023-04-02T20:24:34.543Z,101608.81
2023-04-02T20:29:36.635Z,101620.91
2023-04-02T20:34:39.071Z,101623.13
2023-04-02T20:39:41.468Z,101594.00
2023-04-02T20:44:43.604Z,101614.31
2023-04-02T20:50:10.009Z,101625.31
2023-04-02T20:55:20.319Z,101638.50
2023-04-02T21:00:25.860Z,101637.44
2023-04-02T21:05:32.778Z,101653.38
2023-04-02T21:10:40.436Z,101649.53
2023-04-02T21:15:45.831Z,101652.56
2023-04-02T21:21:15.044Z,101651.19
2023-04-02T21:26:22.888Z,101652.84
2023-04-02T21:31:31.168Z,101653.94
2023-04-02T21:36:36.717Z,101652.28
2023-04-02T21:41:41.280Z,101667.13
2023-04-02T21:46:44.394Z,101690.75
2023-04-02T21:51:47.296Z,101689.66
2023-04-02T21:56:49.770Z,101676.47
2023-04-02T22:01:52.596Z,101689.66
2023-04-02T22:06:54.787Z,101689.13
2023-04-02T22:12:02.400Z,101685.28
2023-04-02T22:17:04.611Z,101682.00
2023-04-02T22:22:06.862Z,101680.09
2023-04-02T22:27:08.858Z,101669.38
2023-04-02T22:32:11.036Z,101669.91
2023-04-02T22:37:14.071Z,101661.69
2023-04-02T22:42:16.756Z,101671.00
2023-04-02T22:47:18.982Z,101666.56
2023-04-02T22:52:24.210Z,101654.47
2023-04-02T22:57:26.370Z,101650.09
2023-04-02T23:02:28.226Z,101645.97
2023-04-02T23:07:35.057Z,101641.28
2023-04-02T23:12:44.884Z,101644.31
2023-04-02T23:17:50.810Z,101644.03
2023-04-02T23:22:53.101Z,101640.44
2023-04-02T23:27:55.752Z,101647.84
2023-04-02T23:33:08.263Z,101651.41
2023-04-02T23:38:20.152Z,101649.75
2023-04-02T23:43:44.666Z,101640.94
2023-04-02T23:48:53.233Z,101641.78
2023-04-02T23:59:46.191Z,101639.28
